• Join FlightAware (Why Join?)
  • Login
  • US Flag 
06:14AM EDT


 

Airport Tracker/Info


-or-


 

Live Flight TrackerFlight Track Log ✈ CPZ5750 ✈ 07-Jul-2013 ✈ KALB - KMSP

Flight Track Log - Related Links

Times and Time Zones

All times are in EDT time to prevent confusion due to time zone crossing. See the CPZ5750 flight status page for this flight to view local times or setup timezone preferences in your user account.

Time Position Orientation Groundspeed Altitude Reporting Facility
EDT Latitude Longitude Course Direction KTS MPH feet Rate Location/Type
07:36PM 42.8075 -73.7506 North 267 307 5,100  Level Boston Center
07:37PM 42.8439 -73.8417 299° West 222 255 8,200 2,520 Climbing Boston Center
07:38PM 42.8783 -73.9389 296° West 235 270 10,200 1,980 Climbing Boston Center
07:39PM 42.9103 -74.0361 294° West 288 331 12,200 2,160 Climbing Boston Center
07:40PM 42.9608 -74.1425 303° West 309 356 14,600 2,100 Climbing Boston Center
07:41PM 43.0222 -74.2150 319° Northwest 315 362 16,500 1,920 Climbing Boston Center
07:42PM 43.0956 -74.3139 315° West 327 376 18,500 1,740 Climbing Boston Center
07:43PM 43.1417 -74.4264 299° West 332 382 20,000 1,200 Climbing Boston Center
07:44PM 43.1750 -74.5525 290° West 337 388 21,000 480 Climbing Boston Center
07:45PM 43.2058 -74.6761 289° West 344 396 21,000  Level Boston Center
07:46PM 43.2408 -74.8000 291° West 349 402 21,000  Level Boston Center
07:47PM 43.2736 -74.9267 290° West 349 402 21,000  Level Boston Center
07:48PM 43.3025 -75.0308 291° West 349 402 21,000 300 Level Boston Center
07:49PM 43.3447 -75.1925 290° West 355 409 21,700 900 Climbing Boston Center
07:50PM 43.3811 -75.3256 291° West 392 451 22,900 1,140 Climbing Boston Center
07:51PM 43.4169 -75.4672 289° West 399 459 24,000 1,020 Climbing Boston Center
07:52PM 43.4547 -75.6122 290° West 399 459 25,000 960 Climbing Boston Center
07:53PM 43.4942 -75.7631 290° West 412 474 26,000 960 Climbing Boston Center
07:54PM 43.5314 -75.9114 289° West 412 474 27,000 900 Climbing Boston Center
07:55PM 43.5703 -76.0683 289° West 417 480 27,800 720 Climbing Boston Center
07:56PM 43.6092 -76.2197 290° West 423 487 28,500 720 Climbing Boston Center
07:57PM 43.6475 -76.3803 288° West 429 494 29,300 900 Climbing Boston Center
07:58PM 43.6786 -76.5086 289° West 434 499 30,300 1,080 Climbing Boston Center
07:58PM 43.7000 -76.6500 282° West 430 495 31,300 960 Climbing Toronto Center
07:59PM 43.7500 -76.8000 295° West 420 483 32,100 900 Climbing Toronto Center
08:00PM 43.7833 -76.9500 287° West 430 495 33,100 900 Climbing Toronto Center
08:01PM 43.8167 -77.1167 286° West 410 472 33,900 420 Climbing Toronto Center
08:02PM 43.8500 -77.2500 289° West 410 472 34,000  Climbing Toronto Center
08:03PM 43.9000 -77.4167 293° West 420 483 34,000  Level Toronto Center
08:04PM 43.9333 -77.5667 287° West 420 483 34,000  Level Toronto Center
08:05PM 43.9500 -77.7167 279° West 420 483 34,000  Level Toronto Center
08:06PM 43.9833 -77.8667 287° West 420 483 34,000  Level Toronto Center
08:07PM 44.0167 -78.0333 286° West 420 483 34,000  Level Toronto Center
08:08PM 44.0500 -78.1667 289° West 420 483 34,000  Level Toronto Center
08:09PM 44.0833 -78.3500 284° West 420 483 34,000  Level Toronto Center
08:10PM 44.1333 -78.5000 295° West 420 483 34,000  Level Toronto Center
08:11PM 44.1667 -78.6500 287° West 420 483 34,000  Level Toronto Center
08:12PM 44.2000 -78.8167 286° West 420 483 34,000  Level Toronto Center
08:13PM 44.2333 -78.9833 286° West 420 483 34,000  Level Toronto Center
08:14PM 44.2667 -79.1167 289° West 420 483 34,000  Level Toronto Center
08:15PM 44.3000 -79.2833 286° West 420 483 34,000  Level Toronto Center
08:16PM 44.3333 -79.4500 286° West 420 483 34,000  Level Toronto Center
08:17PM 44.3667 -79.5833 289° West 420 483 34,000  Level Toronto Center
08:18PM 44.4000 -79.7500 286° West 420 483 34,000  Level Toronto Center
08:19PM 44.4000 -79.9167 270° West 420 483 34,000  Level Toronto Center
08:20PM 44.4000 -80.0833 270° West 420 483 34,000  Level Toronto Center
08:21PM 44.4000 -80.2333 270° West 410 472 34,000  Level Toronto Center
08:22PM 44.4000 -80.4000 270° West 410 472 34,000  Level Toronto Center
08:23PM 44.3833 -80.5667 262° West 420 483 34,000  Level Toronto Center
08:24PM 44.3833 -80.7333 270° West 420 483 34,000  Level Toronto Center
08:25PM 44.3667 -80.9000 262° West 420 483 34,000  Level Toronto Center
08:26PM 44.3667 -81.0500 270° West 420 483 34,000  Level Toronto Center
08:27PM 44.3667 -81.2167 270° West 420 483 34,000  Level Toronto Center
08:28PM 44.3500 -81.3833 262° West 430 495 34,000  Level Toronto Center
08:29PM 44.3500 -81.5500 270° West 430 495 34,000  Level Toronto Center
08:30PM 44.3500 -81.7333 270° West 430 495 34,000  Level Toronto Center
08:31PM 44.3500 -81.9000 270° West 430 495 34,000  Level Toronto Center
08:32PM 44.3333 -82.0500 261° West 430 495 34,000  Level Toronto Center
08:33PM 44.3167 -82.2167 262° West 430 495 34,000  Level Toronto Center
08:34PM 44.3333 -82.4000 277° West 430 495 34,000  Level Toronto Center
08:35PM 44.3667 -82.5667 286° West 440 506 34,000  Level Toronto Center
08:36PM 44.3667 -82.7167 270° West 440 506 34,000  Level Toronto Center
08:37PM 44.3953 -82.8378 288° West 442 509 34,000 120 Level Minneapolis Center
08:38PM 44.4103 -83.0067 277° West 441 507 34,300 600 Climbing Minneapolis Center
08:39PM 44.4175 -83.1711 274° West 431 496 35,300 780 Climbing Minneapolis Center
08:40PM 44.4261 -83.3344 274° West 424 488 36,000 300 Climbing Minneapolis Center
08:41PM 44.4347 -83.5328 274° West 426 490 36,000  Level Minneapolis Center
08:42PM 44.4436 -83.7033 274° West 437 503 36,000  Level Minneapolis Center
08:43PM 44.4506 -83.8750 273° West 442 509 36,000  Level Minneapolis Center
08:44PM 44.4578 -84.0442 273° West 439 505 36,000  Level Minneapolis Center
08:45PM 44.4656 -84.2147 274° West 440 506 36,000 -60 Level Minneapolis Center
08:46PM 44.4733 -84.3836 274° West 437 503 35,900  Descending Minneapolis Center
08:47PM 44.4797 -84.5869 273° West 436 502 36,000  Climbing Minneapolis Center
08:48PM 44.4858 -84.7556 273° West 435 501 36,000 -60 Level Minneapolis Center
08:49PM 44.4917 -84.9225 273° West 433 498 35,900  Descending Minneapolis Center
08:50PM 44.4981 -85.0897 273° West 431 496 36,000  Climbing Minneapolis Center
08:52PM 44.5036 -85.2550 273° West 426 490 36,000  Level Minneapolis Center
08:53PM 44.5069 -85.4169 272° West 419 482 36,000  Level Minneapolis Center
08:54PM 44.5122 -85.5808 273° West 420 483 36,000  Level Minneapolis Center
08:55PM 44.5167 -85.7772 272° West 420 483 36,000  Level Minneapolis Center
08:56PM 44.5203 -85.9394 272° West 413 475 36,000  Level Minneapolis Center
08:57PM 44.5236 -86.0700 272° West 415 478 36,000  Level Minneapolis Center
08:58PM 44.5283 -86.2672 272° West 418 481 36,000  Level Minneapolis Center
08:59PM 44.5317 -86.3972 272° West 416 479 36,000  Level Minneapolis Center
09:00PM 44.5353 -86.5922 272° West 416 479 36,000  Level Minneapolis Center
09:01PM 44.5386 -86.7531 272° West 414 476 36,000  Level Minneapolis Center
09:02PM 44.5408 -86.9142 271° West 414 476 36,000  Level Minneapolis Center
09:03PM 44.5439 -87.1069 271° West 414 476 36,000  Level Minneapolis Center
09:04PM 44.5461 -87.2375 271° West 416 479 36,000  Level Minneapolis Center
09:05PM 44.5483 -87.4328 271° West 417 480 36,000  Level Minneapolis Center
09:06PM 44.5522 -87.6267 272° West 414 476 36,000  Level Minneapolis Center
09:07PM 44.5533 -87.7842 271° West 408 470 36,000  Level Minneapolis Center
09:08PM 44.5547 -87.9597 271° West 405 466 36,000  Level Minneapolis Center
09:09PM 44.5542 -88.1186 270° West 409 471 36,000  Level Minneapolis Center
09:10PM 44.5644 -88.2778 275° West 411 473 36,000  Level Minneapolis Center
09:11PM 44.5858 -88.4578 280° West 405 466 36,000  Level Minneapolis Center
09:12PM 44.6039 -88.6114 279° West 402 463 36,000  Level Minneapolis Center
09:13PM 44.6217 -88.7644 279° West 398 458 36,000  Level Minneapolis Center
09:14PM 44.6386 -88.9186 279° West 401 461 36,000  Level Minneapolis Center
09:15PM 44.6569 -89.0747 279° West 403 464 36,000  Level Minneapolis Center
09:17PM 44.6764 -89.2589 279° West 408 470 36,000  Level Minneapolis Center
09:18PM 44.6936 -89.4128 279° West 401 461 36,000 -300 Level Minneapolis Center
09:19PM 44.7100 -89.5661 279° West 398 458 35,500 -840 Descending Minneapolis Center
09:20PM 44.7258 -89.7189 278° West 396 456 34,200 -1,440 Descending Minneapolis Center
09:21PM 44.7331 -89.9300 273° West 415 478 32,300 -1,440 Descending Minneapolis Center
09:22PM 44.6603 -90.0603 232° Southwest 435 501 31,300 -1,020 Descending Minneapolis Center
09:23PM 44.5753 -90.1797 225° Southwest 435 501 30,300 -1,680 Descending Minneapolis Center
09:24PM 44.5372 -90.3303 251° West 424 488 27,900 -1,680 Descending Minneapolis Center
09:25PM 44.5692 -90.4892 286° West 423 487 26,900 -1,080 Descending Minneapolis Center
09:26PM 44.6161 -90.6567 292° West 409 471 25,700 -1,200 Descending Minneapolis Center
09:27PM 44.6564 -90.8025 291° West 404 465 24,500 -1,200 Descending Minneapolis Center
09:28PM 44.6956 -90.9472 291° West 400 460 23,100 -1,200 Descending Minneapolis Center
09:30PM 44.7428 -91.1178 291° West 395 455 21,600 -1,380 Descending Minneapolis Center
09:31PM 44.7881 -91.2875 291° West 390 449 20,000 -1,500 Descending Minneapolis Center
09:32PM 44.8297 -91.4464 290° West 369 425 18,600 -1,320 Descending Minneapolis Center
09:33PM 44.8647 -91.5758 291° West 359 413 17,400 -1,260 Descending Minneapolis Center
09:34PM 44.8925 -91.7022 287° West 347 399 16,100 -1,320 Descending Minneapolis Center
09:35PM 44.9086 -91.8308 280° West 338 389 14,700 -1,380 Descending Minneapolis Center
09:36PM 44.9250 -91.9578 280° West 331 381 13,300 -1,260 Descending Minneapolis Center
09:37PM 44.9406 -92.0753 281° West 305 351 12,200 -1,080 Descending Minneapolis Center
09:38PM 44.9586 -92.2133 281° West 301 346 11,100 -600 Descending Minneapolis Center
09:39PM 44.9775 -92.3272 283° West 301 346 11,000 -180 Descending Minneapolis Center
09:40PM 44.9522 -92.4300 251° West 291 335 10,800 -1,020 Descending Minneapolis Center
09:41PM 44.9197 -92.5308 246° West 286 329 9,000 -1,800 Descending Minneapolis Center
09:42PM 44.9211 -92.6425 271° West 283 326 7,200 -1,020 Descending Minneapolis Center
09:43PM 44.8906 -92.7397 246° West 273 314 7,000 -540 Descending Minneapolis Center
09:44PM 44.8608 -92.8203 243° Southwest 235 270 6,100 -1,200 Descending Minneapolis Center
09:45PM 44.8258 -92.9183 243° Southwest 234 269 4,600 -1,500 Descending Minneapolis Center